EPKTEPKK

Guest
Details From EPKT - PYRZOWICE
To EPKK - BALICE
Flight Number -
Tags decoded
Created
Modified
Stats Distance 41 nm / 76 km
Max Altitude 0 ft / 0 m
Waypoints 3
Social Downloads 8
Likes 0
Share VATSIM

Download

Looking for another format? Having issues loading an existing format? Contact us
Advertisement - Login to hide

Notes

Requested: EPKT 5027N 01904E EPKT X 5023N 01902E EPKT GOLF 5019N 01913E EPKT HOTEL 5016N 01925E EPKT BRAVO 5012N 01927E CZY 5008N 01937E EPKT INDIA 5007N 01947E EPKK ZULU EPKK Unmatched points: GOLF CZY ZULU

Route

EPKT 5007N01947E EPKK

ID Type Via Altitude Latitude Longitude Leg Dist Tot Dist Heading (true) Name
O EPKT APT - 0 ft / 0 m 50.47426˚ 19.07436˚ - 0 nm - PYRZOWICE
5007N01947E LATLON - 0 ft / 0 m 50.07000˚ 19.47000˚ 28 nm 28 nm 148° / 148° -
O EPKK APT - 0 ft / 0 m 50.07782˚ 19.78550˚ 12 nm 40 nm 88° / 88° BALICE

Altitude Profile

Advertisement - Login to hide

EPKT

Details ICAO EPKT (KTW)
Name PYRZOWICE
Region Poland
Timezone Europe/Warsaw (UTC+1.0)
Stats Elevation 995 ft / 303 m (AMSL)
Location 50.474263° 19.074356°
Runways 1
Magnetic Variation 5.084° E

METAR

EPKT 131500Z 18007KT 9999 SCT039 01/M05 Q1013

Decode

TAF

TAF EPKT 131130Z 1312/1412 24007KT CAVOK BECMG 1315/1318 17012KT PROB30 TEMPO 1406/1412 20015G25KT BKN014CB

Decode

Departure Runways

ID Width Length Bearing (true) Bearing (mag) Surface Threshold Offset Overrun Length
09 195 ft / 59 m 9,156 ft / 2,791 m 90.18° 85.10° Concrete 0 ft / 0 m 0 ft / 0 m
27 195 ft / 59 m 9,156 ft / 2,791 m 270.22° 265.14° Concrete 0 ft / 0 m 0 ft / 0 m

EPKK

Details ICAO EPKK (KRK)
Name BALICE
Region Poland
Timezone Europe/Warsaw (UTC+1.0)
Stats Elevation 791 ft / 241 m (AMSL)
Location 50.077821° 19.785503°
Runways 1
Magnetic Variation 5.201° E

METAR

EPKK 131500Z VRB02KT 9999 BKN050 02/M04 Q1014

Decode

TAF

TAF EPKK 131130Z 1312/1412 VRB02KT CAVOK PROB30 TEMPO 1321/1406 3000 BR BECMG 1406/1409 24012KT PROB30 TEMPO 1409/1412 25015G25KT BKN020CB

Decode

Destination Runways

ID Width Length Bearing (true) Bearing (mag) Surface Threshold Offset Overrun Length
07 197 ft / 60 m 8,343 ft / 2,543 m 77.75° 72.55° Concrete 0 ft / 0 m 0 ft / 0 m
25 197 ft / 60 m 8,343 ft / 2,543 m 257.77° 252.57° Concrete 784 ft / 239 m 0 ft / 0 m

Approach Navaids

Runway Type Ident Frequency Range Bearing (true) Bearing (mag) Slope Elevation
25 Localiser KRW 110.30 MHz 18 nm / 33 km 257.73° 252.53° - 791 ft / 241 m (AMSL)
25 Glidescope KRW 110.30 MHz 10 nm / 19 km 257.76° 252.56° 3.00° 791 ft / 241 m (AMSL)
25 DME KRW 110.30 MHz 18 nm / 33 km - - - 827 ft / 252 m (AMSL)

Popular Alternatives